sensor_id;sensor_type;location;lat;lon;timestamp;temperature;humidity
16893;DHT22;8563;52.242;9.098;2022-08-01T01:18:27;20.50;95.60
16893;DHT22;8563;52.242;9.098;2022-08-01T01:21:07;20.50;95.40
16893;DHT22;8563;52.242;9.098;2022-08-01T01:23:50;20.40;95.90
16893;DHT22;8563;52.242;9.098;2022-08-01T01:26:36;20.20;96.10
16893;DHT22;8563;52.242;9.098;2022-08-01T01:29:16;20.20;96.30
16893;DHT22;8563;52.242;9.098;2022-08-01T01:31:53;20.00;96.50
16893;DHT22;8563;52.242;9.098;2022-08-01T01:34:28;20.00;96.60
16893;DHT22;8563;52.242;9.098;2022-08-01T01:37:03;20.00;96.80
16893;DHT22;8563;52.242;9.098;2022-08-01T01:39:38;19.90;96.60
16893;DHT22;8563;52.242;9.098;2022-08-01T01:42:14;19.90;96.50
16893;DHT22;8563;52.242;9.098;2022-08-01T01:44:50;19.80;96.80
16893;DHT22;8563;52.242;9.098;2022-08-01T01:47:23;19.80;97.10
16893;DHT22;8563;52.242;9.098;2022-08-01T01:49:57;19.80;97.30
16893;DHT22;8563;52.242;9.098;2022-08-01T01:52:32;19.80;97.00
16893;DHT22;8563;52.242;9.098;2022-08-01T01:55:06;19.80;97.10
16893;DHT22;8563;52.242;9.098;2022-08-01T01:57:41;19.80;97.30
16893;DHT22;8563;52.242;9.098;2022-08-01T02:00:17;19.80;97.30
16893;DHT22;8563;52.242;9.098;2022-08-01T02:02:51;19.70;97.30
16893;DHT22;8563;52.242;9.098;2022-08-01T02:05:25;19.70;97.40
16893;DHT22;8563;52.242;9.098;2022-08-01T02:07:58;19.60;97.50
16893;DHT22;8563;52.242;9.098;2022-08-01T02:10:32;19.60;97.40
16893;DHT22;8563;52.242;9.098;2022-08-01T02:13:05;19.60;97.10
16893;DHT22;8563;52.242;9.098;2022-08-01T02:15:40;19.60;97.30
16893;DHT22;8563;52.242;9.098;2022-08-01T02:18:12;19.60;97.20
16893;DHT22;8563;52.242;9.098;2022-08-01T02:20:48;19.60;97.10
16893;DHT22;8563;52.242;9.098;2022-08-01T02:23:23;19.60;97.10
16893;DHT22;8563;52.242;9.098;2022-08-01T02:25:58;19.60;97.20
16893;DHT22;8563;52.242;9.098;2022-08-01T02:28:34;19.60;97.30
16893;DHT22;8563;52.242;9.098;2022-08-01T02:31:13;19.60;97.50
16893;DHT22;8563;52.242;9.098;2022-08-01T02:33:50;19.60;97.60
16893;DHT22;8563;52.242;9.098;2022-08-01T02:36:26;19.60;97.90
16893;DHT22;8563;52.242;9.098;2022-08-01T02:39:02;19.60;97.90
16893;DHT22;8563;52.242;9.098;2022-08-01T02:41:39;19.50;97.60
16893;DHT22;8563;52.242;9.098;2022-08-01T02:44:23;19.40;97.80
16893;DHT22;8563;52.242;9.098;2022-08-01T02:47:00;19.40;97.90
16893;DHT22;8563;52.242;9.098;2022-08-01T02:49:36;19.40;97.90
16893;DHT22;8563;52.242;9.098;2022-08-01T02:52:12;19.40;98.40
16893;DHT22;8563;52.242;9.098;2022-08-01T02:54:46;19.30;98.20
16893;DHT22;8563;52.242;9.098;2022-08-01T02:57:20;19.30;98.40
16893;DHT22;8563;52.242;9.098;2022-08-01T02:59:54;19.30;98.40
16893;DHT22;8563;52.242;9.098;2022-08-01T03:02:30;19.30;98.40
16893;DHT22;8563;52.242;9.098;2022-08-01T03:05:04;19.30;98.20
16893;DHT22;8563;52.242;9.098;2022-08-01T03:07:39;19.30;98.40
16893;DHT22;8563;52.242;9.098;2022-08-01T03:10:13;19.30;98.40
16893;DHT22;8563;52.242;9.098;2022-08-01T03:12:47;19.30;98.30
16893;DHT22;8563;52.242;9.098;2022-08-01T03:15:21;19.30;98.20
16893;DHT22;8563;52.242;9.098;2022-08-01T03:17:56;19.30;98.00
16893;DHT22;8563;52.242;9.098;2022-08-01T03:20:32;19.30;98.20
16893;DHT22;8563;52.242;9.098;2022-08-01T03:23:07;19.30;98.40
16893;DHT22;8563;52.242;9.098;2022-08-01T03:25:41;19.30;98.10
16893;DHT22;8563;52.242;9.098;2022-08-01T03:28:16;19.30;98.00
16893;DHT22;8563;52.242;9.098;2022-08-01T03:30:50;19.30;97.90
16893;DHT22;8563;52.242;9.098;2022-08-01T03:33:25;19.30;98.20
16893;DHT22;8563;52.242;9.098;2022-08-01T03:36:00;19.30;98.10
16893;DHT22;8563;52.242;9.098;2022-08-01T03:38:35;19.30;98.20
16893;DHT22;8563;52.242;9.098;2022-08-01T03:41:13;19.30;98.10
16893;DHT22;8563;52.242;9.098;2022-08-01T03:43:50;19.30;98.10
16893;DHT22;8563;52.242;9.098;2022-08-01T03:46:30;19.30;98.00
16893;DHT22;8563;52.242;9.098;2022-08-01T03:49:10;19.30;97.90
16893;DHT22;8563;52.242;9.098;2022-08-01T03:51:45;19.30;97.80
16893;DHT22;8563;52.242;9.098;2022-08-01T03:54:23;19.30;98.00
16893;DHT22;8563;52.242;9.098;2022-08-01T03:56:57;19.30;98.00
16893;DHT22;8563;52.242;9.098;2022-08-01T03:59:30;19.30;98.20
16893;DHT22;8563;52.242;9.098;2022-08-01T04:02:04;19.30;98.10
16893;DHT22;8563;52.242;9.098;2022-08-01T04:04:39;19.30;98.40
16893;DHT22;8563;52.242;9.098;2022-08-01T04:07:22;19.30;98.20
16893;DHT22;8563;52.242;9.098;2022-08-01T04:09:55;19.30;98.20
16893;DHT22;8563;52.242;9.098;2022-08-01T04:12:28;19.30;98.30
16893;DHT22;8563;52.242;9.098;2022-08-01T04:15:01;19.30;98.30
16893;DHT22;8563;52.242;9.098;2022-08-01T04:17:34;19.30;97.90
16893;DHT22;8563;52.242;9.098;2022-08-01T04:20:09;19.30;97.70
16893;DHT22;8563;52.242;9.098;2022-08-01T04:22:42;19.30;97.80
16893;DHT22;8563;52.242;9.098;2022-08-01T04:25:19;19.30;98.10
16893;DHT22;8563;52.242;9.098;2022-08-01T04:27:53;19.30;98.00
16893;DHT22;8563;52.242;9.098;2022-08-01T04:30:28;19.30;97.80
16893;DHT22;8563;52.242;9.098;2022-08-01T04:33:04;19.30;98.10
16893;DHT22;8563;52.242;9.098;2022-08-01T04:35:39;19.30;98.20
16893;DHT22;8563;52.242;9.098;2022-08-01T04:38:16;19.30;98.10
16893;DHT22;8563;52.242;9.098;2022-08-01T04:40:51;19.30;98.20
16893;DHT22;8563;52.242;9.098;2022-08-01T04:43:24;19.40;97.90
16893;DHT22;8563;52.242;9.098;2022-08-01T04:45:58;19.30;97.80
16893;DHT22;8563;52.242;9.098;2022-08-01T04:48:32;19.40;98.00
16893;DHT22;8563;52.242;9.098;2022-08-01T04:51:12;19.40;97.80
16893;DHT22;8563;52.242;9.098;2022-08-01T04:53:45;19.40;97.70
16893;DHT22;8563;52.242;9.098;2022-08-01T04:56:18;19.40;97.90
16893;DHT22;8563;52.242;9.098;2022-08-01T04:58:51;19.50;97.70
16893;DHT22;8563;52.242;9.098;2022-08-01T05:01:48;19.50;97.30
16893;DHT22;8563;52.242;9.098;2022-08-01T05:04:21;19.50;97.80
16893;DHT22;8563;52.242;9.098;2022-08-01T05:06:55;19.50;97.60
16893;DHT22;8563;52.242;9.098;2022-08-01T05:09:27;19.50;97.50
16893;DHT22;8563;52.242;9.098;2022-08-01T05:12:02;19.50;97.40
16893;DHT22;8563;52.242;9.098;2022-08-01T05:14:35;19.50;97.20
16893;DHT22;8563;52.242;9.098;2022-08-01T05:17:08;19.50;96.90
16893;DHT22;8563;52.242;9.098;2022-08-01T05:19:41;19.60;96.90
16893;DHT22;8563;52.242;9.098;2022-08-01T05:22:16;19.50;97.10
16893;DHT22;8563;52.242;9.098;2022-08-01T05:24:49;19.50;96.80
16893;DHT22;8563;52.242;9.098;2022-08-01T05:27:21;19.40;97.10
16893;DHT22;8563;52.242;9.098;2022-08-01T05:29:54;19.40;97.20
16893;DHT22;8563;52.242;9.098;2022-08-01T05:32:26;19.40;97.20
16893;DHT22;8563;52.242;9.098;2022-08-01T05:35:01;19.40;97.50
16893;DHT22;8563;52.242;9.098;2022-08-01T05:37:35;19.50;97.40
16893;DHT22;8563;52.242;9.098;2022-08-01T05:40:08;19.60;97.40
16893;DHT22;8563;52.242;9.098;2022-08-01T05:42:41;19.80;96.80
16893;DHT22;8563;52.242;9.098;2022-08-01T05:45:13;19.90;96.60
16893;DHT22;8563;52.242;9.098;2022-08-01T05:47:46;20.00;96.40
16893;DHT22;8563;52.242;9.098;2022-08-01T05:50:18;20.10;96.30
16893;DHT22;8563;52.242;9.098;2022-08-01T05:52:53;20.10;96.00
16893;DHT22;8563;52.242;9.098;2022-08-01T05:55:25;20.10;96.10
16893;DHT22;8563;52.242;9.098;2022-08-01T05:57:58;20.20;95.80
16893;DHT22;8563;52.242;9.098;2022-08-01T06:00:30;20.30;95.40
16893;DHT22;8563;52.242;9.098;2022-08-01T06:03:03;20.40;95.10
16893;DHT22;8563;52.242;9.098;2022-08-01T06:05:36;20.60;94.80
16893;DHT22;8563;52.242;9.098;2022-08-01T06:08:10;20.70;94.60
16893;DHT22;8563;52.242;9.098;2022-08-01T06:10:42;20.70;94.80
16893;DHT22;8563;52.242;9.098;2022-08-01T06:13:15;20.60;94.20
16893;DHT22;8563;52.242;9.098;2022-08-01T06:15:47;20.60;94.40
16893;DHT22;8563;52.242;9.098;2022-08-01T06:18:20;20.60;94.40
16893;DHT22;8563;52.242;9.098;2022-08-01T06:20:53;20.70;94.20
16893;DHT22;8563;52.242;9.098;2022-08-01T06:23:27;20.60;94.40
16893;DHT22;8563;52.242;9.098;2022-08-01T06:26:00;20.60;94.50
16893;DHT22;8563;52.242;9.098;2022-08-01T06:28:32;20.70;94.20
16893;DHT22;8563;52.242;9.098;2022-08-01T06:31:05;20.90;94.00
16893;DHT22;8563;52.242;9.098;2022-08-01T06:33:38;20.90;93.70
16893;DHT22;8563;52.242;9.098;2022-08-01T06:36:10;20.90;93.90
16893;DHT22;8563;52.242;9.098;2022-08-01T06:38:44;20.70;94.10
16893;DHT22;8563;52.242;9.098;2022-08-01T06:41:17;20.50;95.80
16893;DHT22;8563;52.242;9.098;2022-08-01T06:43:49;20.20;95.60
16893;DHT22;8563;52.242;9.098;2022-08-01T06:46:22;20.10;95.60
16893;DHT22;8563;52.242;9.098;2022-08-01T06:48:55;20.00;95.80
16893;DHT22;8563;52.242;9.098;2022-08-01T06:51:27;19.80;95.60
16893;DHT22;8563;52.242;9.098;2022-08-01T06:54:01;19.80;95.60
16893;DHT22;8563;52.242;9.098;2022-08-01T06:56:33;19.90;95.60
16893;DHT22;8563;52.242;9.098;2022-08-01T06:59:06;19.90;95.80
16893;DHT22;8563;52.242;9.098;2022-08-01T07:01:39;20.00;96.00
16893;DHT22;8563;52.242;9.098;2022-08-01T07:04:11;20.10;95.50
16893;DHT22;8563;52.242;9.098;2022-08-01T07:06:44;20.20;95.30
16893;DHT22;8563;52.242;9.098;2022-08-01T07:09:18;20.10;95.60
16893;DHT22;8563;52.242;9.098;2022-08-01T07:11:50;20.20;95.70
16893;DHT22;8563;52.242;9.098;2022-08-01T07:14:23;20.20;95.70
16893;DHT22;8563;52.242;9.098;2022-08-01T07:16:55;20.20;95.40
16893;DHT22;8563;52.242;9.098;2022-08-01T07:19:28;20.10;95.20
16893;DHT22;8563;52.242;9.098;2022-08-01T07:22:00;20.10;95.50
16893;DHT22;8563;52.242;9.098;2022-08-01T07:24:34;20.10;95.10
16893;DHT22;8563;52.242;9.098;2022-08-01T07:27:07;20.10;95.20
16893;DHT22;8563;52.242;9.098;2022-08-01T07:29:40;20.00;95.20
16893;DHT22;8563;52.242;9.098;2022-08-01T07:32:12;20.00;95.30
16893;DHT22;8563;52.242;9.098;2022-08-01T07:34:44;20.10;95.70
16893;DHT22;8563;52.242;9.098;2022-08-01T07:37:17;20.00;94.90
16893;DHT22;8563;52.242;9.098;2022-08-01T07:39:51;19.90;95.70
16893;DHT22;8563;52.242;9.098;2022-08-01T07:42:23;20.00;95.50
16893;DHT22;8563;52.242;9.098;2022-08-01T07:44:56;19.90;95.40
16893;DHT22;8563;52.242;9.098;2022-08-01T07:47:28;20.00;95.70
16893;DHT22;8563;52.242;9.098;2022-08-01T07:50:01;20.10;95.90
16893;DHT22;8563;52.242;9.098;2022-08-01T07:52:34;20.20;95.30
16893;DHT22;8563;52.242;9.098;2022-08-01T07:55:09;20.30;95.10
16893;DHT22;8563;52.242;9.098;2022-08-01T07:57:42;20.40;95.00
16893;DHT22;8563;52.242;9.098;2022-08-01T08:00:15;20.50;95.20
16893;DHT22;8563;52.242;9.098;2022-08-01T08:02:48;20.70;94.60
16893;DHT22;8563;52.242;9.098;2022-08-01T08:05:21;20.80;93.80
16893;DHT22;8563;52.242;9.098;2022-08-01T08:07:53;20.90;93.60
16893;DHT22;8563;52.242;9.098;2022-08-01T08:10:27;20.80;93.70
16893;DHT22;8563;52.242;9.098;2022-08-01T08:13:00;20.90;94.10
16893;DHT22;8563;52.242;9.098;2022-08-01T08:15:32;21.00;94.20
16893;DHT22;8563;52.242;9.098;2022-08-01T08:18:06;21.00;93.80
16893;DHT22;8563;52.242;9.098;2022-08-01T08:20:39;21.00;93.60
16893;DHT22;8563;52.242;9.098;2022-08-01T08:23:11;20.90;93.50
16893;DHT22;8563;52.242;9.098;2022-08-01T08:26:03;20.80;93.90
16893;DHT22;8563;52.242;9.098;2022-08-01T08:28:35;20.70;93.50
16893;DHT22;8563;52.242;9.098;2022-08-01T08:31:08;20.60;93.60
16893;DHT22;8563;52.242;9.098;2022-08-01T08:33:40;20.60;94.20
16893;DHT22;8563;52.242;9.098;2022-08-01T08:36:13;20.80;93.60
16893;DHT22;8563;52.242;9.098;2022-08-01T08:38:46;21.10;92.70
16893;DHT22;8563;52.242;9.098;2022-08-01T08:41:20;21.10;93.00
16893;DHT22;8563;52.242;9.098;2022-08-01T08:43:53;21.10;92.60
16893;DHT22;8563;52.242;9.098;2022-08-01T08:46:28;21.20;92.10
16893;DHT22;8563;52.242;9.098;2022-08-01T08:49:01;21.40;92.00
16893;DHT22;8563;52.242;9.098;2022-08-01T08:51:38;21.40;92.30
16893;DHT22;8563;52.242;9.098;2022-08-01T08:54:11;21.40;91.90
16893;DHT22;8563;52.242;9.098;2022-08-01T08:56:47;21.20;92.00
16893;DHT22;8563;52.242;9.098;2022-08-01T08:59:22;21.10;91.40
16893;DHT22;8563;52.242;9.098;2022-08-01T09:01:56;21.00;90.90
16893;DHT22;8563;52.242;9.098;2022-08-01T09:04:28;21.20;91.10
16893;DHT22;8563;52.242;9.098;2022-08-01T09:07:03;21.60;91.90
16893;DHT22;8563;52.242;9.098;2022-08-01T09:09:36;21.80;92.20
16893;DHT22;8563;52.242;9.098;2022-08-01T09:12:10;22.10;90.40
16893;DHT22;8563;52.242;9.098;2022-08-01T09:14:46;21.90;89.80
16893;DHT22;8563;52.242;9.098;2022-08-01T09:17:20;21.80;90.40
16893;DHT22;8563;52.242;9.098;2022-08-01T09:19:55;22.00;90.20
16893;DHT22;8563;52.242;9.098;2022-08-01T09:22:32;22.40;90.00
16893;DHT22;8563;52.242;9.098;2022-08-01T09:25:07;22.60;90.40
16893;DHT22;8563;52.242;9.098;2022-08-01T09:27:41;22.80;86.00
16893;DHT22;8563;52.242;9.098;2022-08-01T09:30:15;22.90;87.00
16893;DHT22;8563;52.242;9.098;2022-08-01T09:32:55;22.80;90.00
16893;DHT22;8563;52.242;9.098;2022-08-01T09:35:29;22.80;83.40
16893;DHT22;8563;52.242;9.098;2022-08-01T09:38:12;22.60;84.70
16893;DHT22;8563;52.242;9.098;2022-08-01T09:40:51;22.80;83.60
16893;DHT22;8563;52.242;9.098;2022-08-01T09:43:27;22.80;88.10
16893;DHT22;8563;52.242;9.098;2022-08-01T09:46:04;22.80;86.10
16893;DHT22;8563;52.242;9.098;2022-08-01T09:48:36;22.40;86.30
16893;DHT22;8563;52.242;9.098;2022-08-01T09:51:10;22.40;85.90
16893;DHT22;8563;52.242;9.098;2022-08-01T09:53:45;22.50;86.50
16893;DHT22;8563;52.242;9.098;2022-08-01T09:56:17;23.00;84.20
16893;DHT22;8563;52.242;9.098;2022-08-01T09:58:54;23.00;82.50
16893;DHT22;8563;52.242;9.098;2022-08-01T10:01:27;22.70;82.20
16893;DHT22;8563;52.242;9.098;2022-08-01T10:04:07;22.90;83.90
16893;DHT22;8563;52.242;9.098;2022-08-01T10:06:41;23.20;79.80
16893;DHT22;8563;52.242;9.098;2022-08-01T10:09:15;23.30;80.30
16893;DHT22;8563;52.242;9.098;2022-08-01T10:11:47;23.10;81.80
16893;DHT22;8563;52.242;9.098;2022-08-01T10:14:22;23.20;82.10
16893;DHT22;8563;52.242;9.098;2022-08-01T10:16:57;23.20;80.70
16893;DHT22;8563;52.242;9.098;2022-08-01T10:19:30;22.90;83.00
16893;DHT22;8563;52.242;9.098;2022-08-01T10:22:07;22.60;83.90
16893;DHT22;8563;52.242;9.098;2022-08-01T10:24:40;22.20;84.40
16893;DHT22;8563;52.242;9.098;2022-08-01T10:27:14;22.20;83.10
16893;DHT22;8563;52.242;9.098;2022-08-01T10:29:55;22.10;84.30
16893;DHT22;8563;52.242;9.098;2022-08-01T10:32:32;22.30;84.30
16893;DHT22;8563;52.242;9.098;2022-08-01T10:35:06;22.50;82.80
16893;DHT22;8563;52.242;9.098;2022-08-01T10:37:39;22.40;80.40
16893;DHT22;8563;52.242;9.098;2022-08-01T10:40:12;22.20;83.00
16893;DHT22;8563;52.242;9.098;2022-08-01T10:42:45;22.20;81.30
16893;DHT22;8563;52.242;9.098;2022-08-01T10:45:19;22.20;81.50
16893;DHT22;8563;52.242;9.098;2022-08-01T10:47:58;22.30;81.60
16893;DHT22;8563;52.242;9.098;2022-08-01T10:50:34;22.40;80.10
16893;DHT22;8563;52.242;9.098;2022-08-01T10:53:12;22.30;79.80
16893;DHT22;8563;52.242;9.098;2022-08-01T10:55:48;22.40;81.10
16893;DHT22;8563;52.242;9.098;2022-08-01T10:58:22;22.60;79.00
16893;DHT22;8563;52.242;9.098;2022-08-01T11:01:16;22.40;81.90
16893;DHT22;8563;52.242;9.098;2022-08-01T11:04:07;22.40;81.60
16893;DHT22;8563;52.242;9.098;2022-08-01T11:06:53;22.50;81.50
16893;DHT22;8563;52.242;9.098;2022-08-01T11:09:31;22.40;80.40
16893;DHT22;8563;52.242;9.098;2022-08-01T11:12:11;22.40;80.70
16893;DHT22;8563;52.242;9.098;2022-08-01T11:15:16;22.30;80.70
16893;DHT22;8563;52.242;9.098;2022-08-01T11:17:57;22.50;81.70
16893;DHT22;8563;52.242;9.098;2022-08-01T11:20:32;22.50;80.20
16893;DHT22;8563;52.242;9.098;2022-08-01T11:23:26;23.10;80.80
16893;DHT22;8563;52.242;9.098;2022-08-01T11:26:12;22.50;78.20
16893;DHT22;8563;52.242;9.098;2022-08-01T11:31:42;22.20;80.30
16893;DHT22;8563;52.242;9.098;2022-08-01T11:34:16;22.40;80.40
16893;DHT22;8563;52.242;9.098;2022-08-01T11:36:49;22.60;78.50
16893;DHT22;8563;52.242;9.098;2022-08-01T11:39:21;23.00;76.30
16893;DHT22;8563;52.242;9.098;2022-08-01T11:41:54;23.00;76.50
16893;DHT22;8563;52.242;9.098;2022-08-01T11:44:27;22.70;77.80
16893;DHT22;8563;52.242;9.098;2022-08-01T11:47:01;23.00;77.70
16893;DHT22;8563;52.242;9.098;2022-08-01T11:49:46;23.00;77.70
16893;DHT22;8563;52.242;9.098;2022-08-01T11:52:24;23.10;76.00
16893;DHT22;8563;52.242;9.098;2022-08-01T11:55:03;22.70;73.60
16893;DHT22;8563;52.242;9.098;2022-08-01T11:57:36;22.70;75.90
16893;DHT22;8563;52.242;9.098;2022-08-01T12:00:13;22.60;75.20
16893;DHT22;8563;52.242;9.098;2022-08-01T12:02:46;22.50;77.80
16893;DHT22;8563;52.242;9.098;2022-08-01T12:05:20;22.50;75.30
16893;DHT22;8563;52.242;9.098;2022-08-01T12:07:54;22.80;76.60
16893;DHT22;8563;52.242;9.098;2022-08-01T12:10:32;22.90;73.00
16893;DHT22;8563;52.242;9.098;2022-08-01T12:13:07;22.60;73.80
16893;DHT22;8563;52.242;9.098;2022-08-01T12:15:40;22.60;75.60
16893;DHT22;8563;52.242;9.098;2022-08-01T12:18:14;22.70;75.20
16893;DHT22;8563;52.242;9.098;2022-08-01T12:20:48;22.90;72.70
16893;DHT22;8563;52.242;9.098;2022-08-01T12:23:20;22.60;74.80
16893;DHT22;8563;52.242;9.098;2022-08-01T12:25:53;22.70;72.10
16893;DHT22;8563;52.242;9.098;2022-08-01T12:28:25;22.90;71.90
16893;DHT22;8563;52.242;9.098;2022-08-01T12:30:58;23.10;72.30
16893;DHT22;8563;52.242;9.098;2022-08-01T12:33:30;23.00;71.50
16893;DHT22;8563;52.242;9.098;2022-08-01T12:36:06;23.00;71.50
16893;DHT22;8563;52.242;9.098;2022-08-01T12:38:38;23.20;72.40
16893;DHT22;8563;52.242;9.098;2022-08-01T12:41:12;23.30;71.60
16893;DHT22;8563;52.242;9.098;2022-08-01T12:43:45;23.50;68.50
16893;DHT22;8563;52.242;9.098;2022-08-01T12:46:18;23.60;68.30
16893;DHT22;8563;52.242;9.098;2022-08-01T12:48:52;23.60;69.70
16893;DHT22;8563;52.242;9.098;2022-08-01T12:51:26;23.80;70.80
16893;DHT22;8563;52.242;9.098;2022-08-01T12:53:58;23.70;70.90
16893;DHT22;8563;52.242;9.098;2022-08-01T12:56:31;23.80;69.00
16893;DHT22;8563;52.242;9.098;2022-08-01T12:59:19;23.70;70.60
16893;DHT22;8563;52.242;9.098;2022-08-01T13:01:53;23.60;69.20
16893;DHT22;8563;52.242;9.098;2022-08-01T13:04:26;23.30;71.40
16893;DHT22;8563;52.242;9.098;2022-08-01T13:07:00;23.10;71.20
16893;DHT22;8563;52.242;9.098;2022-08-01T13:09:32;23.20;72.20
16893;DHT22;8563;52.242;9.098;2022-08-01T13:12:08;23.40;72.70
16893;DHT22;8563;52.242;9.098;2022-08-01T13:14:42;23.60;70.30
16893;DHT22;8563;52.242;9.098;2022-08-01T13:17:30;23.50;69.60
16893;DHT22;8563;52.242;9.098;2022-08-01T13:20:02;23.60;68.20
16893;DHT22;8563;52.242;9.098;2022-08-01T13:22:37;23.30;68.00
16893;DHT22;8563;52.242;9.098;2022-08-01T13:25:12;23.20;68.70
16893;DHT22;8563;52.242;9.098;2022-08-01T13:27:44;23.20;70.70
16893;DHT22;8563;52.242;9.098;2022-08-01T13:30:19;23.30;68.90
16893;DHT22;8563;52.242;9.098;2022-08-01T13:32:59;23.50;71.60
16893;DHT22;8563;52.242;9.098;2022-08-01T13:35:32;23.60;67.60
16893;DHT22;8563;52.242;9.098;2022-08-01T13:38:06;23.70;68.30
16893;DHT22;8563;52.242;9.098;2022-08-01T13:40:39;23.90;66.40
16893;DHT22;8563;52.242;9.098;2022-08-01T13:43:11;24.00;67.30
16893;DHT22;8563;52.242;9.098;2022-08-01T13:45:44;23.80;67.40
16893;DHT22;8563;52.242;9.098;2022-08-01T13:48:16;23.90;66.50
16893;DHT22;8563;52.242;9.098;2022-08-01T13:50:49;23.80;66.30
16893;DHT22;8563;52.242;9.098;2022-08-01T13:53:23;23.60;67.20
16893;DHT22;8563;52.242;9.098;2022-08-01T13:55:55;23.70;68.10
16893;DHT22;8563;52.242;9.098;2022-08-01T13:58:28;23.80;68.90
16893;DHT22;8563;52.242;9.098;2022-08-01T14:01:00;23.70;68.10
16893;DHT22;8563;52.242;9.098;2022-08-01T14:03:33;23.60;67.60
16893;DHT22;8563;52.242;9.098;2022-08-01T14:06:05;23.60;67.10
16893;DHT22;8563;52.242;9.098;2022-08-01T14:08:39;23.80;67.40
16893;DHT22;8563;52.242;9.098;2022-08-01T14:11:12;23.60;66.60
16893;DHT22;8563;52.242;9.098;2022-08-01T14:13:44;23.70;67.80
16893;DHT22;8563;52.242;9.098;2022-08-01T14:16:20;23.40;67.50
16893;DHT22;8563;52.242;9.098;2022-08-01T14:18:52;23.20;68.80
16893;DHT22;8563;52.242;9.098;2022-08-01T14:21:25;23.30;69.70
16893;DHT22;8563;52.242;9.098;2022-08-01T14:23:59;23.30;68.10
16893;DHT22;8563;52.242;9.098;2022-08-01T14:26:31;23.40;68.40
16893;DHT22;8563;52.242;9.098;2022-08-01T14:29:04;23.60;67.00
16893;DHT22;8563;52.242;9.098;2022-08-01T14:31:36;23.70;66.00
16893;DHT22;8563;52.242;9.098;2022-08-01T14:34:09;23.60;66.10
16893;DHT22;8563;52.242;9.098;2022-08-01T14:36:42;23.60;67.20
16893;DHT22;8563;52.242;9.098;2022-08-01T14:39:15;23.70;68.10
16893;DHT22;8563;52.242;9.098;2022-08-01T14:41:49;23.80;65.60
16893;DHT22;8563;52.242;9.098;2022-08-01T14:44:21;23.70;66.60
16893;DHT22;8563;52.242;9.098;2022-08-01T14:46:53;23.70;67.30
16893;DHT22;8563;52.242;9.098;2022-08-01T14:49:26;23.80;67.00
16893;DHT22;8563;52.242;9.098;2022-08-01T14:51:58;23.70;68.10
16893;DHT22;8563;52.242;9.098;2022-08-01T14:54:33;23.60;67.00
16893;DHT22;8563;52.242;9.098;2022-08-01T14:57:05;23.60;66.70
16893;DHT22;8563;52.242;9.098;2022-08-01T14:59:37;23.60;67.30
16893;DHT22;8563;52.242;9.098;2022-08-01T15:02:10;23.70;66.20
16893;DHT22;8563;52.242;9.098;2022-08-01T15:04:44;23.60;66.70
16893;DHT22;8563;52.242;9.098;2022-08-01T15:07:18;23.70;67.40
16893;DHT22;8563;52.242;9.098;2022-08-01T15:09:52;23.80;65.50
16893;DHT22;8563;52.242;9.098;2022-08-01T15:12:24;24.00;66.90
16893;DHT22;8563;52.242;9.098;2022-08-01T15:14:57;24.00;66.20
16893;DHT22;8563;52.242;9.098;2022-08-01T15:17:30;23.90;65.60
16893;DHT22;8563;52.242;9.098;2022-08-01T15:20:05;23.90;65.00
16893;DHT22;8563;52.242;9.098;2022-08-01T15:22:38;23.70;65.20
16893;DHT22;8563;52.242;9.098;2022-08-01T15:25:12;23.70;66.30
16893;DHT22;8563;52.242;9.098;2022-08-01T15:27:44;23.80;67.30
16893;DHT22;8563;52.242;9.098;2022-08-01T15:30:17;23.70;66.60
16893;DHT22;8563;52.242;9.098;2022-08-01T15:32:50;23.70;65.30
16893;DHT22;8563;52.242;9.098;2022-08-01T15:35:22;23.70;65.90
16893;DHT22;8563;52.242;9.098;2022-08-01T15:37:54;23.50;66.00
16893;DHT22;8563;52.242;9.098;2022-08-01T15:40:29;23.50;66.10
16893;DHT22;8563;52.242;9.098;2022-08-01T15:43:05;23.50;66.90
16893;DHT22;8563;52.242;9.098;2022-08-01T15:45:37;23.50;68.30
16893;DHT22;8563;52.242;9.098;2022-08-01T15:48:10;23.50;65.30
16893;DHT22;8563;52.242;9.098;2022-08-01T15:50:42;23.50;66.40
16893;DHT22;8563;52.242;9.098;2022-08-01T15:53:15;23.40;66.30
16893;DHT22;8563;52.242;9.098;2022-08-01T15:55:49;23.50;66.60
16893;DHT22;8563;52.242;9.098;2022-08-01T15:58:22;23.40;67.30
16893;DHT22;8563;52.242;9.098;2022-08-01T16:00:54;23.40;67.90
16893;DHT22;8563;52.242;9.098;2022-08-01T16:03:27;23.40;67.10
16893;DHT22;8563;52.242;9.098;2022-08-01T16:05:59;23.40;64.20
16893;DHT22;8563;52.242;9.098;2022-08-01T16:08:32;23.40;64.90
16893;DHT22;8563;52.242;9.098;2022-08-01T16:11:06;23.30;66.40
16893;DHT22;8563;52.242;9.098;2022-08-01T16:13:38;23.20;66.00
16893;DHT22;8563;52.242;9.098;2022-08-01T16:16:14;23.20;65.60
16893;DHT22;8563;52.242;9.098;2022-08-01T16:18:48;23.20;66.30
16893;DHT22;8563;52.242;9.098;2022-08-01T16:21:21;23.30;66.80
16893;DHT22;8563;52.242;9.098;2022-08-01T16:23:54;23.30;65.80
16893;DHT22;8563;52.242;9.098;2022-08-01T16:26:29;23.30;65.30
16893;DHT22;8563;52.242;9.098;2022-08-01T16:29:01;23.20;66.50
16893;DHT22;8563;52.242;9.098;2022-08-01T16:31:33;23.20;67.90
16893;DHT22;8563;52.242;9.098;2022-08-01T16:34:09;23.00;67.60
16893;DHT22;8563;52.242;9.098;2022-08-01T16:36:41;23.00;67.10
16893;DHT22;8563;52.242;9.098;2022-08-01T16:39:14;23.00;67.20
16893;DHT22;8563;52.242;9.098;2022-08-01T16:41:48;23.20;67.30
16893;DHT22;8563;52.242;9.098;2022-08-01T16:44:21;23.30;65.10
16893;DHT22;8563;52.242;9.098;2022-08-01T16:46:53;23.40;66.00
16893;DHT22;8563;52.242;9.098;2022-08-01T16:49:26;23.40;66.00
16893;DHT22;8563;52.242;9.098;2022-08-01T16:51:58;23.40;66.90
16893;DHT22;8563;52.242;9.098;2022-08-01T16:54:31;23.30;68.40
16893;DHT22;8563;52.242;9.098;2022-08-01T16:57:05;23.00;68.10
16893;DHT22;8563;52.242;9.098;2022-08-01T16:59:37;22.80;68.20
16893;DHT22;8563;52.242;9.098;2022-08-01T17:02:10;22.60;68.50
16893;DHT22;8563;52.242;9.098;2022-08-01T17:04:42;22.40;69.00
16893;DHT22;8563;52.242;9.098;2022-08-01T17:07:15;22.30;69.10
16893;DHT22;8563;52.242;9.098;2022-08-01T17:09:47;22.40;69.80
16893;DHT22;8563;52.242;9.098;2022-08-01T17:12:21;22.30;71.20
16893;DHT22;8563;52.242;9.098;2022-08-01T17:14:54;22.40;69.90
16893;DHT22;8563;52.242;9.098;2022-08-01T17:17:27;22.40;69.90
16893;DHT22;8563;52.242;9.098;2022-08-01T17:19:59;22.40;69.30
16893;DHT22;8563;52.242;9.098;2022-08-01T17:22:32;22.40;68.90
16893;DHT22;8563;52.242;9.098;2022-08-01T17:25:05;22.30;69.20
16893;DHT22;8563;52.242;9.098;2022-08-01T17:27:39;22.30;68.70
16893;DHT22;8563;52.242;9.098;2022-08-01T17:30:12;22.30;69.10
16893;DHT22;8563;52.242;9.098;2022-08-01T17:32:45;22.10;70.10
16893;DHT22;8563;52.242;9.098;2022-08-01T17:35:18;22.00;70.60
16893;DHT22;8563;52.242;9.098;2022-08-01T17:37:50;21.90;69.30
16893;DHT22;8563;52.242;9.098;2022-08-01T17:40:23;21.70;69.30
16893;DHT22;8563;52.242;9.098;2022-08-01T17:42:57;21.60;71.10
16893;DHT22;8563;52.242;9.098;2022-08-01T17:45:29;21.50;69.20
16893;DHT22;8563;52.242;9.098;2022-08-01T17:48:02;21.50;71.40
16893;DHT22;8563;52.242;9.098;2022-08-01T17:50:35;21.40;71.70